sensor_id;sensor_type;location;lat;lon;timestamp;pressure;altitude;pressure_sealevel;temperature;humidity
64066;BME280;50318;54.760;9.408;2023-02-10T00:00:46;102511.03;;;9.05;66.94
64066;BME280;50318;54.760;9.408;2023-02-10T00:03:12;102516.06;;;9.13;66.75
64066;BME280;50318;54.760;9.408;2023-02-10T00:05:38;102518.03;;;9.09;67.06
64066;BME280;50318;54.760;9.408;2023-02-10T00:08:05;102515.28;;;9.13;66.70
64066;BME280;50318;54.760;9.408;2023-02-10T00:10:31;102515.69;;;9.08;66.80
64066;BME280;50318;54.760;9.408;2023-02-10T00:12:57;102499.28;;;9.04;67.17
64066;BME280;50318;54.760;9.408;2023-02-10T00:15:23;102520.78;;;9.09;67.12
64066;BME280;50318;54.760;9.408;2023-02-10T00:17:49;102534.09;;;9.07;66.96
64066;BME280;50318;54.760;9.408;2023-02-10T00:20:15;102532.91;;;9.12;67.52
64066;BME280;50318;54.760;9.408;2023-02-10T00:22:42;102532.50;;;9.13;67.37
64066;BME280;50318;54.760;9.408;2023-02-10T00:25:08;102549.34;;;9.08;67.89
64066;BME280;50318;54.760;9.408;2023-02-10T00:27:34;102532.88;;;9.15;67.68
64066;BME280;50318;54.760;9.408;2023-02-10T00:30:00;102520.75;;;9.20;67.63
64066;BME280;50318;54.760;9.408;2023-02-10T00:32:26;102530.50;;;9.21;67.56
64066;BME280;50318;54.760;9.408;2023-02-10T00:34:52;102533.66;;;9.19;67.39
64066;BME280;50318;54.760;9.408;2023-02-10T00:37:19;102529.34;;;9.22;67.56
64066;BME280;50318;54.760;9.408;2023-02-10T00:39:45;102524.63;;;9.22;67.48
64066;BME280;50318;54.760;9.408;2023-02-10T00:42:12;102534.81;;;9.29;67.59
64066;BME280;50318;54.760;9.408;2023-02-10T00:44:38;102537.16;;;9.27;68.02
64066;BME280;50318;54.760;9.408;2023-02-10T00:47:04;102544.19;;;9.32;67.82
64066;BME280;50318;54.760;9.408;2023-02-10T00:49:30;102552.00;;;9.37;67.83
64066;BME280;50318;54.760;9.408;2023-02-10T00:51:56;102535.59;;;9.30;68.09
64066;BME280;50318;54.760;9.408;2023-02-10T00:54:22;102546.94;;;9.32;67.76
64066;BME280;50318;54.760;9.408;2023-02-10T00:56:49;102552.41;;;9.32;68.58
64066;BME280;50318;54.760;9.408;2023-02-10T00:59:16;102545.75;;;9.33;68.33
64066;BME280;50318;54.760;9.408;2023-02-10T01:01:42;102541.84;;;9.34;68.43
64066;BME280;50318;54.760;9.408;2023-02-10T01:04:09;102541.03;;;9.40;68.69
64066;BME280;50318;54.760;9.408;2023-02-10T01:06:35;102552.41;;;9.35;67.98
64066;BME280;50318;54.760;9.408;2023-02-10T01:09:01;102537.94;;;9.20;68.16
64066;BME280;50318;54.760;9.408;2023-02-10T01:11:27;102547.34;;;9.27;68.73
64066;BME280;50318;54.760;9.408;2023-02-10T01:13:53;102556.31;;;9.34;68.24
64066;BME280;50318;54.760;9.408;2023-02-10T01:16:20;102560.63;;;9.32;68.13
64066;BME280;50318;54.760;9.408;2023-02-10T01:18:46;102557.47;;;9.33;68.60
64066;BME280;50318;54.760;9.408;2023-02-10T01:21:15;102560.66;;;9.25;68.90
64066;BME280;50318;54.760;9.408;2023-02-10T01:23:43;102557.50;;;9.30;68.76
64066;BME280;50318;54.760;9.408;2023-02-10T01:26:09;102558.25;;;9.34;68.43
64066;BME280;50318;54.760;9.408;2023-02-10T01:28:37;102551.63;;;9.28;68.61
64066;BME280;50318;54.760;9.408;2023-02-10T01:31:06;102544.19;;;9.32;68.88
64066;BME280;50318;54.760;9.408;2023-02-10T01:33:35;102539.91;;;9.23;68.45
64066;BME280;50318;54.760;9.408;2023-02-10T01:36:06;102539.91;;;9.16;69.20
64066;BME280;50318;54.760;9.408;2023-02-10T01:38:32;102532.47;;;9.17;68.41
64066;BME280;50318;54.760;9.408;2023-02-10T01:40:59;102536.41;;;9.12;69.25
64066;BME280;50318;54.760;9.408;2023-02-10T01:43:26;102528.22;;;8.98;68.91
64066;BME280;50318;54.760;9.408;2023-02-10T01:45:56;102540.34;;;9.04;69.24
64066;BME280;50318;54.760;9.408;2023-02-10T01:48:24;102545.03;;;8.97;69.13
64066;BME280;50318;54.760;9.408;2023-02-10T01:51:03;102538.03;;;8.85;69.12
64066;BME280;50318;54.760;9.408;2023-02-10T01:53:30;102533.34;;;8.75;69.96
64066;BME280;50318;54.760;9.408;2023-02-10T01:55:59;102540.00;;;8.84;68.94
64066;BME280;50318;54.760;9.408;2023-02-10T01:58:29;102553.69;;;8.77;69.75
64066;BME280;50318;54.760;9.408;2023-02-10T02:00:59;102548.59;;;8.72;69.65
64066;BME280;50318;54.760;9.408;2023-02-10T02:03:25;102541.97;;;8.77;69.33
64066;BME280;50318;54.760;9.408;2023-02-10T02:05:51;102543.13;;;8.72;70.03
64066;BME280;50318;54.760;9.408;2023-02-10T02:08:23;102547.81;;;8.57;70.06
64066;BME280;50318;54.760;9.408;2023-02-10T02:13:59;102551.31;;;8.44;70.42
64066;BME280;50318;54.760;9.408;2023-02-10T02:22:39;102552.47;;;8.32;71.11
64066;BME280;50318;54.760;9.408;2023-02-10T02:25:20;102538.00;;;8.28;71.04
64066;BME280;50318;54.760;9.408;2023-02-10T02:33:29;102531.75;;;8.17;71.29
64066;BME280;50318;54.760;9.408;2023-02-10T02:36:01;102541.91;;;8.20;71.23
64066;BME280;50318;54.760;9.408;2023-02-10T02:38:29;102539.56;;;8.15;71.20
64066;BME280;50318;54.760;9.408;2023-02-10T02:40:56;102536.03;;;8.14;71.14
64066;BME280;50318;54.760;9.408;2023-02-10T02:43:22;102536.44;;;8.13;71.66
64066;BME280;50318;54.760;9.408;2023-02-10T02:45:53;102547.38;;;8.20;71.15
64066;BME280;50318;54.760;9.408;2023-02-10T02:48:38;102552.81;;;8.16;71.23
64066;BME280;50318;54.760;9.408;2023-02-10T02:51:21;102549.31;;;8.09;70.94
64066;BME280;50318;54.760;9.408;2023-02-10T02:56:23;102548.88;;;7.99;71.45
64066;BME280;50318;54.760;9.408;2023-02-10T03:04:01;102536.38;;;7.98;71.66
64066;BME280;50318;54.760;9.408;2023-02-10T03:06:30;102534.81;;;7.97;71.88
64066;BME280;50318;54.760;9.408;2023-02-10T03:08:56;102534.81;;;7.97;71.55
64066;BME280;50318;54.760;9.408;2023-02-10T03:11:22;102538.34;;;7.94;71.28
64066;BME280;50318;54.760;9.408;2023-02-10T03:13:48;102531.31;;;7.90;71.43
64066;BME280;50318;54.760;9.408;2023-02-10T03:16:15;102537.94;;;7.96;71.43
64066;BME280;50318;54.760;9.408;2023-02-10T03:18:41;102531.28;;;7.86;71.65
64066;BME280;50318;54.760;9.408;2023-02-10T03:21:26;102533.97;;;7.76;71.91
64066;BME280;50318;54.760;9.408;2023-02-10T03:24:10;102537.94;;;7.85;72.29
64066;BME280;50318;54.760;9.408;2023-02-10T03:26:57;102527.72;;;7.75;72.52
64066;BME280;50318;54.760;9.408;2023-02-10T03:29:43;102542.22;;;7.83;71.80
64066;BME280;50318;54.760;9.408;2023-02-10T03:32:30;102539.84;;;7.78;71.69
64066;BME280;50318;54.760;9.408;2023-02-10T03:35:16;102531.63;;;7.74;71.91
64066;BME280;50318;54.760;9.408;2023-02-10T03:37:43;102537.47;;;7.69;71.67
64066;BME280;50318;54.760;9.408;2023-02-10T03:40:09;102555.06;;;7.75;71.72
64066;BME280;50318;54.760;9.408;2023-02-10T03:42:36;102553.88;;;7.76;71.73
64066;BME280;50318;54.760;9.408;2023-02-10T03:45:02;102542.56;;;7.74;72.18
64066;BME280;50318;54.760;9.408;2023-02-10T03:47:28;102542.56;;;7.70;71.61
64066;BME280;50318;54.760;9.408;2023-02-10T03:49:54;102546.44;;;7.66;72.15
64066;BME280;50318;54.760;9.408;2023-02-10T03:52:21;102539.41;;;7.65;71.92
64066;BME280;50318;54.760;9.408;2023-02-10T03:54:48;102548.00;;;7.67;72.16
64066;BME280;50318;54.760;9.408;2023-02-10T03:57:14;102562.06;;;7.65;72.48
64066;BME280;50318;54.760;9.408;2023-02-10T03:59:40;102547.22;;;7.59;72.36
64066;BME280;50318;54.760;9.408;2023-02-10T04:02:06;102561.28;;;7.65;72.56
64066;BME280;50318;54.760;9.408;2023-02-10T04:04:33;102566.78;;;7.79;72.68
64066;BME280;50318;54.760;9.408;2023-02-10T04:07:01;102559.78;;;7.82;72.70
64066;BME280;50318;54.760;9.408;2023-02-10T04:09:27;102565.59;;;7.80;73.23
64066;BME280;50318;54.760;9.408;2023-02-10T04:11:53;102566.81;;;7.83;73.21
64066;BME280;50318;54.760;9.408;2023-02-10T04:14:19;102573.06;;;7.87;72.77
64066;BME280;50318;54.760;9.408;2023-02-10T04:16:46;102579.72;;;7.89;73.06
64066;BME280;50318;54.760;9.408;2023-02-10T04:19:12;102573.47;;;7.89;73.32
64066;BME280;50318;54.760;9.408;2023-02-10T04:21:38;102571.13;;;7.91;73.16
64066;BME280;50318;54.760;9.408;2023-02-10T04:24:04;102555.13;;;7.96;73.06
64066;BME280;50318;54.760;9.408;2023-02-10T04:26:31;102563.38;;;8.07;72.88
64066;BME280;50318;54.760;9.408;2023-02-10T04:28:57;102563.38;;;8.11;73.05
64066;BME280;50318;54.760;9.408;2023-02-10T04:31:23;102568.84;;;8.14;72.53
64066;BME280;50318;54.760;9.408;2023-02-10T04:33:49;102548.91;;;8.14;72.72
64066;BME280;50318;54.760;9.408;2023-02-10T04:36:16;102561.03;;;8.20;72.71
64066;BME280;50318;54.760;9.408;2023-02-10T04:38:42;102566.91;;;8.25;72.48
64066;BME280;50318;54.760;9.408;2023-02-10T04:41:08;102577.88;;;8.29;72.63
64066;BME280;50318;54.760;9.408;2023-02-10T04:43:34;102554.41;;;8.24;72.89
64066;BME280;50318;54.760;9.408;2023-02-10T04:46:00;102554.41;;;8.24;72.30
64066;BME280;50318;54.760;9.408;2023-02-10T04:48:27;102564.19;;;8.32;72.37
64066;BME280;50318;54.760;9.408;2023-02-10T04:50:53;102574.38;;;8.36;72.11
64066;BME280;50318;54.760;9.408;2023-02-10T04:53:19;102590.78;;;8.39;72.91
64066;BME280;50318;54.760;9.408;2023-02-10T04:55:45;102587.28;;;8.42;72.54
64066;BME280;50318;54.760;9.408;2023-02-10T04:58:12;102581.78;;;8.49;72.17
64066;BME280;50318;54.760;9.408;2023-02-10T05:00:38;102577.88;;;8.50;71.98
64066;BME280;50318;54.760;9.408;2023-02-10T05:03:04;102582.97;;;8.48;72.38
64066;BME280;50318;54.760;9.408;2023-02-10T05:05:30;102582.97;;;8.48;72.58
64066;BME280;50318;54.760;9.408;2023-02-10T05:07:57;102582.59;;;8.53;72.46
64066;BME280;50318;54.760;9.408;2023-02-10T05:10:26;102576.75;;;8.58;72.31
64066;BME280;50318;54.760;9.408;2023-02-10T05:12:52;102575.56;;;8.45;72.14
64066;BME280;50318;54.760;9.408;2023-02-10T05:15:18;102584.16;;;8.51;72.15
64066;BME280;50318;54.760;9.408;2023-02-10T05:17:44;102592.34;;;8.51;71.46
64066;BME280;50318;54.760;9.408;2023-02-10T05:20:11;102599.81;;;8.57;71.80
64066;BME280;50318;54.760;9.408;2023-02-10T05:22:38;102607.22;;;8.64;71.69
64066;BME280;50318;54.760;9.408;2023-02-10T05:25:06;102597.84;;;8.61;72.16
64066;BME280;50318;54.760;9.408;2023-02-10T05:27:33;102591.59;;;8.65;71.68
64066;BME280;50318;54.760;9.408;2023-02-10T05:30:00;102597.84;;;8.69;71.57
64066;BME280;50318;54.760;9.408;2023-02-10T05:32:26;102596.66;;;8.63;71.79
64066;BME280;50318;54.760;9.408;2023-02-10T05:34:52;102605.28;;;8.68;71.95
64066;BME280;50318;54.760;9.408;2023-02-10T05:37:18;102607.59;;;8.70;72.22
64066;BME280;50318;54.760;9.408;2023-02-10T05:39:44;102613.47;;;8.68;72.02
64066;BME280;50318;54.760;9.408;2023-02-10T05:42:11;102615.44;;;8.68;71.77
64066;BME280;50318;54.760;9.408;2023-02-10T05:44:37;102613.09;;;8.70;71.99
64066;BME280;50318;54.760;9.408;2023-02-10T05:47:03;102617.00;;;8.76;72.08
64066;BME280;50318;54.760;9.408;2023-02-10T05:49:29;102620.13;;;8.74;71.84
64066;BME280;50318;54.760;9.408;2023-02-10T05:51:55;102615.03;;;8.69;71.83
64066;BME280;50318;54.760;9.408;2023-02-10T05:54:21;102615.81;;;8.70;71.59
64066;BME280;50318;54.760;9.408;2023-02-10T05:56:48;102629.50;;;8.73;71.44
64066;BME280;50318;54.760;9.408;2023-02-10T05:59:14;102634.97;;;8.73;71.27
64066;BME280;50318;54.760;9.408;2023-02-10T06:01:41;102638.09;;;8.72;71.58
64066;BME280;50318;54.760;9.408;2023-02-10T06:04:08;102649.03;;;8.72;71.51
64066;BME280;50318;54.760;9.408;2023-02-10T06:06:34;102640.44;;;8.70;71.47
64066;BME280;50318;54.760;9.408;2023-02-10T06:09:00;102636.94;;;8.69;71.26
64066;BME280;50318;54.760;9.408;2023-02-10T06:11:26;102634.59;;;8.68;71.31
64066;BME280;50318;54.760;9.408;2023-02-10T06:13:53;102631.84;;;8.57;71.56
64066;BME280;50318;54.760;9.408;2023-02-10T06:16:19;102636.53;;;8.56;70.82
64066;BME280;50318;54.760;9.408;2023-02-10T06:18:45;102632.25;;;8.52;70.82
64066;BME280;50318;54.760;9.408;2023-02-10T06:21:11;102643.53;;;8.50;71.21
64066;BME280;50318;54.760;9.408;2023-02-10T06:23:37;102646.25;;;8.36;71.70
64066;BME280;50318;54.760;9.408;2023-02-10T06:26:04;102636.50;;;8.35;71.36
64066;BME280;50318;54.760;9.408;2023-02-10T06:28:30;102642.69;;;8.28;71.59
64066;BME280;50318;54.760;9.408;2023-02-10T06:30:57;102644.63;;;8.21;71.79
64066;BME280;50318;54.760;9.408;2023-02-10T06:33:23;102647.34;;;8.21;71.92
64066;BME280;50318;54.760;9.408;2023-02-10T06:35:49;102640.31;;;8.20;71.95
64066;BME280;50318;54.760;9.408;2023-02-10T06:38:16;102657.16;;;8.29;72.71
64066;BME280;50318;54.760;9.408;2023-02-10T06:40:42;102662.97;;;8.17;73.11
64066;BME280;50318;54.760;9.408;2023-02-10T06:43:08;102659.84;;;8.18;72.72
64066;BME280;50318;54.760;9.408;2023-02-10T06:45:35;102660.63;;;8.22;72.86
64066;BME280;50318;54.760;9.408;2023-02-10T06:48:01;102653.59;;;8.25;72.67
64066;BME280;50318;54.760;9.408;2023-02-10T06:50:28;102662.97;;;8.27;72.49
64066;BME280;50318;54.760;9.408;2023-02-10T06:52:54;102667.75;;;8.34;72.61
64066;BME280;50318;54.760;9.408;2023-02-10T06:55:20;102667.28;;;8.25;72.94
64066;BME280;50318;54.760;9.408;2023-02-10T06:57:46;102671.25;;;8.38;72.43
64066;BME280;50318;54.760;9.408;2023-02-10T07:00:13;102671.66;;;8.40;72.59
64066;BME280;50318;54.760;9.408;2023-02-10T07:02:40;102671.66;;;8.44;71.86
64066;BME280;50318;54.760;9.408;2023-02-10T07:05:07;102674.78;;;8.49;72.07
64066;BME280;50318;54.760;9.408;2023-02-10T07:07:38;102669.34;;;8.53;71.89
64066;BME280;50318;54.760;9.408;2023-02-10T07:10:04;102677.56;;;8.56;72.33
64066;BME280;50318;54.760;9.408;2023-02-10T07:12:31;102672.50;;;8.58;71.61
64066;BME280;50318;54.760;9.408;2023-02-10T07:14:57;102678.75;;;8.59;71.79
64066;BME280;50318;54.760;9.408;2023-02-10T07:17:23;102674.03;;;8.52;71.91
64066;BME280;50318;54.760;9.408;2023-02-10T07:19:49;102680.31;;;8.56;71.90
64066;BME280;50318;54.760;9.408;2023-02-10T07:22:15;102669.72;;;8.51;72.00
64066;BME280;50318;54.760;9.408;2023-02-10T07:24:42;102673.66;;;8.57;72.02
64066;BME280;50318;54.760;9.408;2023-02-10T07:27:08;102671.28;;;8.49;71.73
64066;BME280;50318;54.760;9.408;2023-02-10T07:29:34;102679.13;;;8.61;71.92
64066;BME280;50318;54.760;9.408;2023-02-10T07:32:00;102681.09;;;8.64;72.01
64066;BME280;50318;54.760;9.408;2023-02-10T07:34:27;102674.44;;;8.61;72.21
64066;BME280;50318;54.760;9.408;2023-02-10T07:36:53;102671.72;;;8.65;71.81
64066;BME280;50318;54.760;9.408;2023-02-10T07:39:20;102666.25;;;8.72;71.90
64066;BME280;50318;54.760;9.408;2023-02-10T07:41:47;102668.22;;;8.79;72.10
64066;BME280;50318;54.760;9.408;2023-02-10T07:44:13;102665.09;;;8.84;71.87
64066;BME280;50318;54.760;9.408;2023-02-10T07:46:39;102663.13;;;8.88;71.00
64066;BME280;50318;54.760;9.408;2023-02-10T07:49:05;102663.53;;;8.90;71.09
64066;BME280;50318;54.760;9.408;2023-02-10T07:51:32;102660.78;;;8.90;71.09
64066;BME280;50318;54.760;9.408;2023-02-10T07:53:58;102670.16;;;8.96;71.18
64066;BME280;50318;54.760;9.408;2023-02-10T07:56:24;102671.75;;;8.97;70.99
64066;BME280;50318;54.760;9.408;2023-02-10T07:58:50;102656.50;;;8.96;70.62
64066;BME280;50318;54.760;9.408;2023-02-10T08:01:16;102665.50;;;9.00;70.54
64066;BME280;50318;54.760;9.408;2023-02-10T08:03:42;102664.72;;;9.03;70.23
64066;BME280;50318;54.760;9.408;2023-02-10T08:06:09;102679.56;;;9.09;69.79
64066;BME280;50318;54.760;9.408;2023-02-10T08:08:35;102654.53;;;8.97;69.97
64066;BME280;50318;54.760;9.408;2023-02-10T08:11:05;102672.53;;;9.12;69.88
64066;BME280;50318;54.760;9.408;2023-02-10T08:13:32;102676.81;;;9.20;70.14
64066;BME280;50318;54.760;9.408;2023-02-10T08:15:58;102672.91;;;9.17;69.87
64066;BME280;50318;54.760;9.408;2023-02-10T08:18:25;102668.63;;;9.16;70.09
64066;BME280;50318;54.760;9.408;2023-02-10T08:20:51;102676.03;;;9.30;69.44
64066;BME280;50318;54.760;9.408;2023-02-10T08:23:17;102669.41;;;9.28;69.74
64066;BME280;50318;54.760;9.408;2023-02-10T08:25:44;102680.34;;;9.35;69.65
64066;BME280;50318;54.760;9.408;2023-02-10T08:28:10;102685.44;;;9.29;69.51
64066;BME280;50318;54.760;9.408;2023-02-10T08:30:37;102691.69;;;9.37;69.28
64066;BME280;50318;54.760;9.408;2023-02-10T08:33:03;102678.75;;;9.41;69.04
64066;BME280;50318;54.760;9.408;2023-02-10T08:35:29;102683.47;;;9.47;68.73
64066;BME280;50318;54.760;9.408;2023-02-10T08:37:55;102698.72;;;9.48;68.98
64066;BME280;50318;54.760;9.408;2023-02-10T08:40:21;102699.88;;;9.44;68.33
64066;BME280;50318;54.760;9.408;2023-02-10T08:42:47;102710.44;;;9.45;68.96
64066;BME280;50318;54.760;9.408;2023-02-10T08:45:14;102699.09;;;9.54;68.79
64066;BME280;50318;54.760;9.408;2023-02-10T08:47:40;102706.13;;;9.66;69.15
64066;BME280;50318;54.760;9.408;2023-02-10T08:50:06;102704.97;;;9.70;68.44
64066;BME280;50318;54.760;9.408;2023-02-10T08:52:32;102710.03;;;9.68;68.31
64066;BME280;50318;54.760;9.408;2023-02-10T08:54:58;102694.38;;;9.62;68.08
64066;BME280;50318;54.760;9.408;2023-02-10T08:57:25;102709.25;;;9.78;68.39
64066;BME280;50318;54.760;9.408;2023-02-10T08:59:51;102713.16;;;9.77;68.58
64066;BME280;50318;54.760;9.408;2023-02-10T09:02:17;102701.41;;;9.77;67.99
64066;BME280;50318;54.760;9.408;2023-02-10T09:04:43;102706.09;;;9.83;68.44
64066;BME280;50318;54.760;9.408;2023-02-10T09:07:10;102706.53;;;9.71;68.38
64066;BME280;50318;54.760;9.408;2023-02-10T09:09:38;102695.53;;;9.75;68.47
64066;BME280;50318;54.760;9.408;2023-02-10T09:12:05;102703.72;;;9.85;68.58
64066;BME280;50318;54.760;9.408;2023-02-10T09:14:31;102706.88;;;9.80;68.51
64066;BME280;50318;54.760;9.408;2023-02-10T09:16:57;102716.69;;;9.74;69.01
64066;BME280;50318;54.760;9.408;2023-02-10T09:19:26;102704.88;;;9.88;68.85
64066;BME280;50318;54.760;9.408;2023-02-10T09:21:52;102692.75;;;9.85;69.30
64066;BME280;50318;54.760;9.408;2023-02-10T09:24:19;102689.59;;;10.01;69.12
64066;BME280;50318;54.760;9.408;2023-02-10T09:26:45;102695.44;;;10.07;69.23
64066;BME280;50318;54.760;9.408;2023-02-10T09:29:12;102679.41;;;10.02;69.00
64066;BME280;50318;54.760;9.408;2023-02-10T09:31:39;102688.41;;;10.02;69.27
64066;BME280;50318;54.760;9.408;2023-02-10T09:34:05;102687.59;;;10.09;68.99
64066;BME280;50318;54.760;9.408;2023-02-10T09:36:32;102695.81;;;10.09;69.02
64066;BME280;50318;54.760;9.408;2023-02-10T09:38:58;102691.91;;;10.10;69.29
64066;BME280;50318;54.760;9.408;2023-02-10T09:44:26;102695.44;;;10.07;69.38
64066;BME280;50318;54.760;9.408;2023-02-10T09:46:58;102714.59;;;10.18;69.77
64066;BME280;50318;54.760;9.408;2023-02-10T09:50:37;102712.59;;;10.32;69.66
64066;BME280;50318;54.760;9.408;2023-02-10T09:53:03;102714.13;;;10.40;68.75
64066;BME280;50318;54.760;9.408;2023-02-10T09:55:34;102693.75;;;10.41;68.83
64066;BME280;50318;54.760;9.408;2023-02-10T10:00:52;102695.22;;;10.57;68.96
64066;BME280;50318;54.760;9.408;2023-02-10T10:03:34;102695.94;;;10.64;68.87
64066;BME280;50318;54.760;9.408;2023-02-10T10:06:45;102698.31;;;10.66;68.62
64066;BME280;50318;54.760;9.408;2023-02-10T10:11:43;102700.16;;;10.83;68.03
64066;BME280;50318;54.760;9.408;2023-02-10T10:14:26;102715.44;;;10.84;68.10
64066;BME280;50318;54.760;9.408;2023-02-10T10:30:59;102709.69;;;10.61;67.90
64066;BME280;50318;54.760;9.408;2023-02-10T10:36:23;102710.81;;;10.74;67.96
64066;BME280;50318;54.760;9.408;2023-02-10T10:38:56;102699.00;;;10.77;67.44
64066;BME280;50318;54.760;9.408;2023-02-10T10:41:27;102698.97;;;10.84;67.64
64066;BME280;50318;54.760;9.408;2023-02-10T10:43:56;102703.91;;;11.03;67.57
64066;BME280;50318;54.760;9.408;2023-02-10T10:46:39;102705.41;;;11.12;67.01
64066;BME280;50318;54.760;9.408;2023-02-10T10:49:06;102705.75;;;11.21;66.86
64066;BME280;50318;54.760;9.408;2023-02-10T10:51:32;102701.34;;;11.30;66.45
64066;BME280;50318;54.760;9.408;2023-02-10T10:53:59;102699.38;;;11.31;66.02
64066;BME280;50318;54.760;9.408;2023-02-10T10:56:45;102699.78;;;11.29;65.77
64066;BME280;50318;54.760;9.408;2023-02-10T10:59:45;102690.81;;;11.22;65.79
64066;BME280;50318;54.760;9.408;2023-02-10T11:02:20;102684.44;;;11.32;65.85
64066;BME280;50318;54.760;9.408;2023-02-10T11:05:00;102687.22;;;11.28;65.46
64066;BME280;50318;54.760;9.408;2023-02-10T11:07:28;102682.06;;;11.34;65.51
64066;BME280;50318;54.760;9.408;2023-02-10T11:09:56;102674.56;;;11.42;65.07
64066;BME280;50318;54.760;9.408;2023-02-10T11:12:45;102676.53;;;11.41;64.95
64066;BME280;50318;54.760;9.408;2023-02-10T11:15:29;102671.81;;;11.42;64.53
64066;BME280;50318;54.760;9.408;2023-02-10T11:17:58;102669.03;;;11.45;64.60
64066;BME280;50318;54.760;9.408;2023-02-10T11:20:31;102666.09;;;11.22;64.76
64066;BME280;50318;54.760;9.408;2023-02-10T11:22:59;102666.09;;;11.22;64.91
64066;BME280;50318;54.760;9.408;2023-02-10T11:27:55;102659.72;;;11.32;65.23
64066;BME280;50318;54.760;9.408;2023-02-10T11:32:56;102654.09;;;11.46;64.19
64066;BME280;50318;54.760;9.408;2023-02-10T11:35:23;102643.22;;;11.32;64.43
64066;BME280;50318;54.760;9.408;2023-02-10T11:37:56;102653.56;;;11.21;64.64
64066;BME280;50318;54.760;9.408;2023-02-10T11:40:26;102651.06;;;11.37;64.73
64066;BME280;50318;54.760;9.408;2023-02-10T11:42:55;102631.00;;;11.40;64.47
64066;BME280;50318;54.760;9.408;2023-02-10T11:45:32;102643.19;;;11.35;64.82
64066;BME280;50318;54.760;9.408;2023-02-10T11:48:16;102636.50;;;11.40;65.08
64066;BME280;50318;54.760;9.408;2023-02-10T11:50:42;102621.56;;;11.41;64.66
64066;BME280;50318;54.760;9.408;2023-02-10T11:53:21;102623.00;;;11.53;64.49
64066;BME280;50318;54.760;9.408;2023-02-10T11:56:03;102622.31;;;11.45;63.96
64066;BME280;50318;54.760;9.408;2023-02-10T12:26:07;102629.03;;;11.41;64.09
64066;BME280;50318;54.760;9.408;2023-02-10T12:29:06;102625.28;;;11.24;64.30
64066;BME280;50318;54.760;9.408;2023-02-10T12:37:37;102607.28;;;11.53;64.41
64066;BME280;50318;54.760;9.408;2023-02-10T12:46:05;102580.41;;;11.37;64.25
64066;BME280;50318;54.760;9.408;2023-02-10T12:49:28;102580.50;;;11.27;64.17
64066;BME280;50318;54.760;9.408;2023-02-10T12:54:39;102571.09;;;11.24;64.59
64066;BME280;50318;54.760;9.408;2023-02-10T12:57:12;102566.03;;;11.23;64.44
64066;BME280;50318;54.760;9.408;2023-02-10T12:59:58;102555.47;;;11.18;64.04
64066;BME280;50318;54.760;9.408;2023-02-10T13:04:54;102556.53;;;11.27;64.00
64066;BME280;50318;54.760;9.408;2023-02-10T13:07:39;102565.66;;;11.21;63.78
64066;BME280;50318;54.760;9.408;2023-02-10T13:12:44;102563.78;;;11.11;63.24
64066;BME280;50318;54.760;9.408;2023-02-10T13:17:45;102548.44;;;11.17;63.91
64066;BME280;50318;54.760;9.408;2023-02-10T13:20:26;102547.94;;;11.25;63.54
64066;BME280;50318;54.760;9.408;2023-02-10T13:23:29;102546.69;;;11.30;63.35
64066;BME280;50318;54.760;9.408;2023-02-10T13:26:16;102545.16;;;11.29;63.61
64066;BME280;50318;54.760;9.408;2023-02-10T13:34:34;102520.25;;;11.09;63.44
64066;BME280;50318;54.760;9.408;2023-02-10T13:37:28;102501.47;;;11.04;64.17
64066;BME280;50318;54.760;9.408;2023-02-10T13:39:58;102488.41;;;11.15;63.64
64066;BME280;50318;54.760;9.408;2023-02-10T13:42:33;102497.44;;;11.16;63.78
64066;BME280;50318;54.760;9.408;2023-02-10T13:45:04;102495.13;;;11.11;64.03
64066;BME280;50318;54.760;9.408;2023-02-10T13:53:00;102494.47;;;10.99;64.30
64066;BME280;50318;54.760;9.408;2023-02-10T14:00:51;102491.09;;;10.85;64.64
64066;BME280;50318;54.760;9.408;2023-02-10T14:03:24;102491.88;;;10.85;65.16
64066;BME280;50318;54.760;9.408;2023-02-10T14:06:11;102501.06;;;10.68;64.90
64066;BME280;50318;54.760;9.408;2023-02-10T14:08:40;102479.16;;;10.61;65.69
64066;BME280;50318;54.760;9.408;2023-02-10T14:13:44;102483.88;;;10.60;65.13
64066;BME280;50318;54.760;9.408;2023-02-10T14:18:40;102501.09;;;10.64;65.78
64066;BME280;50318;54.760;9.408;2023-02-10T14:21:12;102483.88;;;10.60;65.50
64066;BME280;50318;54.760;9.408;2023-02-10T14:23:49;102477.19;;;10.65;65.65
64066;BME280;50318;54.760;9.408;2023-02-10T14:26:21;102477.19;;;10.61;65.45
64066;BME280;50318;54.760;9.408;2023-02-10T14:28:54;102483.09;;;10.60;65.19
64066;BME280;50318;54.760;9.408;2023-02-10T14:31:27;102483.16;;;10.53;65.12
64066;BME280;50318;54.760;9.408;2023-02-10T14:34:02;102494.25;;;10.42;65.55
64066;BME280;50318;54.760;9.408;2023-02-10T14:36:29;102482.94;;;10.33;65.66
64066;BME280;50318;54.760;9.408;2023-02-10T14:39:00;102468.38;;;10.39;65.90
64066;BME280;50318;54.760;9.408;2023-02-10T14:41:29;102455.44;;;10.40;65.79
64066;BME280;50318;54.760;9.408;2023-02-10T14:43:56;102469.25;;;10.29;65.96
64066;BME280;50318;54.760;9.408;2023-02-10T14:46:25;102457.53;;;10.25;66.07
64066;BME280;50318;54.760;9.408;2023-02-10T14:48:57;102453.28;;;10.13;66.76
64066;BME280;50318;54.760;9.408;2023-02-10T14:51:25;102455.28;;;10.09;66.67
64066;BME280;50318;54.760;9.408;2023-02-10T14:53:52;102454.50;;;10.09;66.43
64066;BME280;50318;54.760;9.408;2023-02-10T14:56:34;102460.34;;;10.14;66.60
64066;BME280;50318;54.760;9.408;2023-02-10T14:59:00;102458.00;;;10.13;66.36
64066;BME280;50318;54.760;9.408;2023-02-10T15:01:30;102454.09;;;10.10;67.00
64066;BME280;50318;54.760;9.408;2023-02-10T15:03:58;102455.41;;;9.92;67.03
64066;BME280;50318;54.760;9.408;2023-02-10T15:06:29;102462.09;;;9.87;66.91
64066;BME280;50318;54.760;9.408;2023-02-10T15:09:01;102459.00;;;9.85;67.10
64066;BME280;50318;54.760;9.408;2023-02-10T15:11:38;102459.78;;;9.82;67.18
64066;BME280;50318;54.760;9.408;2023-02-10T15:14:11;102454.75;;;9.70;66.90